createdAt,value
2023-01-18T00:01:13.100Z,-1.73
2023-01-18T00:03:40.484Z,-1.73
2023-01-18T00:06:10.018Z,-1.73
2023-01-18T00:08:39.134Z,-1.73
2023-01-18T00:11:16.036Z,-1.70
2023-01-18T00:13:43.565Z,-1.70
2023-01-18T00:16:19.103Z,-1.70
2023-01-18T00:18:53.566Z,-1.72
2023-01-18T00:21:20.691Z,-1.70
2023-01-18T00:23:47.707Z,-1.69
2023-01-18T00:26:15.012Z,-1.70
2023-01-18T00:28:42.611Z,-1.70
2023-01-18T00:31:15.366Z,-1.68
2023-01-18T00:33:43.851Z,-1.70
2023-01-18T00:36:11.458Z,-1.68
2023-01-18T00:38:38.362Z,-1.69
2023-01-18T00:41:05.575Z,-1.70
2023-01-18T00:43:41.530Z,-1.70
2023-01-18T00:46:10.559Z,-1.70
2023-01-18T00:48:39.831Z,-1.70
2023-01-18T00:51:08.360Z,-1.67
2023-01-18T00:53:35.413Z,-1.65
2023-01-18T00:56:02.352Z,-1.66
2023-01-18T00:58:29.320Z,-1.67
2023-01-18T01:00:56.412Z,-1.66
2023-01-18T01:03:23.439Z,-1.64
2023-01-18T01:06:09.083Z,-1.63
2023-01-18T01:08:35.975Z,-1.64
2023-01-18T01:11:12.671Z,-1.64
2023-01-18T01:13:58.110Z,-1.65
2023-01-18T01:16:43.814Z,-1.66
2023-01-18T01:19:29.290Z,-1.65
2023-01-18T01:22:14.808Z,-1.63
2023-01-18T01:25:00.394Z,-1.62
2023-01-18T01:27:27.488Z,-1.63
2023-01-18T01:29:54.542Z,-1.64
2023-01-18T01:32:21.468Z,-1.64
2023-01-18T01:34:48.446Z,-1.65
2023-01-18T01:37:15.361Z,-1.62
2023-01-18T01:39:42.326Z,-1.65
2023-01-18T01:42:11.900Z,-1.62
2023-01-18T01:44:40.647Z,-1.61
2023-01-18T01:47:31.804Z,-1.60
2023-01-18T01:50:03.163Z,-1.62
2023-01-18T01:52:33.861Z,-1.65
2023-01-18T01:55:24.296Z,-1.63
2023-01-18T01:58:12.419Z,-1.62
2023-01-18T02:00:39.609Z,-1.65
2023-01-18T02:03:09.581Z,-1.64
2023-01-18T02:06:08.686Z,-1.65
2023-01-18T02:08:35.778Z,-1.70
2023-01-18T02:11:05.295Z,-1.70
2023-01-18T02:13:32.490Z,-1.71
2023-01-18T02:16:37.921Z,-1.68
2023-01-18T02:19:24.340Z,-1.70
2023-01-18T02:22:03.526Z,-1.70
2023-01-18T02:25:11.255Z,-1.71
2023-01-18T02:27:46.171Z,-1.70
2023-01-18T02:30:26.550Z,-1.71
2023-01-18T02:33:10.833Z,-1.73
2023-01-18T02:35:48.139Z,-1.74
2023-01-18T02:38:26.915Z,-1.76
2023-01-18T02:41:17.145Z,-1.73
2023-01-18T02:44:04.125Z,-1.75
2023-01-18T02:46:34.285Z,-1.75
2023-01-18T02:49:18.512Z,-1.78
2023-01-18T02:51:45.557Z,-1.83
2023-01-18T02:54:13.259Z,-1.80
2023-01-18T02:56:47.318Z,-1.80
2023-01-18T02:59:22.436Z,-1.79
2023-01-18T03:01:56.056Z,-1.78
2023-01-18T03:04:54.489Z,-1.73
2023-01-18T03:07:31.869Z,-1.77
2023-01-18T03:10:00.892Z,-1.79
2023-01-18T03:12:48.612Z,-1.78
2023-01-18T03:15:18.636Z,-1.79
2023-01-18T03:17:57.528Z,-1.81
2023-01-18T03:20:30.919Z,-1.79
2023-01-18T03:23:20.432Z,-1.82
2023-01-18T03:25:49.667Z,-1.81
2023-01-18T03:28:39.308Z,-1.80
2023-01-18T03:31:29.251Z,-1.84
2023-01-18T03:34:06.644Z,-1.84
2023-01-18T03:36:36.773Z,-1.84
2023-01-18T03:39:06.840Z,-1.84
2023-01-18T03:41:37.110Z,-1.84
2023-01-18T03:44:08.167Z,-1.79
2023-01-18T03:46:35.695Z,-1.79
2023-01-18T03:49:02.851Z,-1.76
2023-01-18T03:51:54.447Z,-1.72
2023-01-18T03:54:30.139Z,-1.77
2023-01-18T03:57:12.643Z,-1.74
2023-01-18T03:59:39.987Z,-1.80
2023-01-18T04:02:08.263Z,-1.75
2023-01-18T04:04:35.560Z,-1.75
2023-01-18T04:07:02.686Z,-1.75
2023-01-18T04:09:29.653Z,-1.74
2023-01-18T04:11:56.562Z,-1.76
2023-01-18T04:14:23.484Z,-1.76
2023-01-18T04:16:50.470Z,-1.72
2023-01-18T04:19:17.745Z,-1.73
2023-01-18T04:21:44.851Z,-1.75
2023-01-18T04:24:12.250Z,-1.78
2023-01-18T04:26:39.356Z,-1.73
2023-01-18T04:29:06.395Z,-1.73
2023-01-18T04:31:33.341Z,-1.72
2023-01-18T04:34:00.329Z,-1.71
2023-01-18T04:36:28.523Z,-1.73
2023-01-18T04:38:57.447Z,-1.70
2023-01-18T04:41:31.513Z,-1.71
2023-01-18T04:44:01.411Z,-1.66
2023-01-18T04:46:28.439Z,-1.70
2023-01-18T04:48:57.035Z,-1.75
2023-01-18T04:51:24.139Z,-1.75
2023-01-18T04:53:51.392Z,-1.72
2023-01-18T04:56:21.181Z,-1.78
2023-01-18T04:58:48.084Z,-1.79
2023-01-18T05:01:16.913Z,-1.78
2023-01-18T05:03:44.071Z,-1.81
2023-01-18T05:06:12.788Z,-1.79
2023-01-18T05:08:42.753Z,-1.81
2023-01-18T05:11:18.727Z,-1.76
2023-01-18T05:13:45.791Z,-1.78
2023-01-18T05:16:15.671Z,-1.80
2023-01-18T05:18:43.499Z,-1.74
2023-01-18T05:21:10.710Z,-1.73
2023-01-18T05:23:39.027Z,-1.76
2023-01-18T05:26:14.956Z,-1.73
2023-01-18T05:28:42.485Z,-1.73
2023-01-18T05:31:09.566Z,-1.73
2023-01-18T05:33:36.973Z,-1.80
2023-01-18T05:36:04.458Z,-1.74
2023-01-18T05:38:31.631Z,-1.75
2023-01-18T05:40:58.758Z,-1.72
2023-01-18T05:43:27.329Z,-1.75
2023-01-18T05:45:54.332Z,-1.79
2023-01-18T05:48:22.074Z,-1.81
2023-01-18T05:50:49.102Z,-1.81
2023-01-18T05:53:21.342Z,-1.82
2023-01-18T05:55:59.277Z,-1.78
2023-01-18T05:58:27.522Z,-1.77
2023-01-18T06:00:56.036Z,-1.83
2023-01-18T06:03:23.957Z,-1.86
2023-01-18T06:05:51.972Z,-1.87
2023-01-18T06:08:19.566Z,-1.86
2023-01-18T06:10:56.692Z,-1.83
2023-01-18T06:13:28.172Z,-1.83
2023-01-18T06:15:56.936Z,-1.83
2023-01-18T06:18:25.206Z,-1.88
2023-01-18T06:20:59.100Z,-1.84
2023-01-18T06:23:28.762Z,-1.83
2023-01-18T06:25:56.490Z,-1.83
2023-01-18T06:28:24.720Z,-1.85
2023-01-18T06:30:55.488Z,-1.84
2023-01-18T06:33:24.241Z,-1.85
2023-01-18T06:35:51.342Z,-1.86
2023-01-18T06:38:18.354Z,-1.85
2023-01-18T06:40:45.281Z,-1.79
2023-01-18T06:43:14.418Z,-1.71
2023-01-18T06:45:42.047Z,-1.70
2023-01-18T06:48:09.245Z,-1.71
2023-01-18T06:50:36.146Z,-1.73
2023-01-18T06:53:03.174Z,-1.68
2023-01-18T06:55:30.067Z,-1.70
2023-01-18T06:57:57.212Z,-1.68
2023-01-18T07:00:24.916Z,-1.65
2023-01-18T07:02:53.165Z,-1.62
2023-01-18T07:05:20.282Z,-1.59
2023-01-18T07:07:47.217Z,-1.55
2023-01-18T07:10:16.482Z,-1.52
2023-01-18T07:12:48.696Z,-1.53
2023-01-18T07:15:22.052Z,-1.57
2023-01-18T07:17:50.648Z,-1.47
2023-01-18T07:20:19.078Z,-1.49
2023-01-18T07:22:46.046Z,-1.43
2023-01-18T07:25:13.656Z,-1.43
2023-01-18T07:27:43.323Z,-1.43
2023-01-18T07:30:12.804Z,-1.38
2023-01-18T07:32:40.201Z,-1.37
2023-01-18T07:35:07.463Z,-1.37
2023-01-18T07:37:34.597Z,-1.33
2023-01-18T07:40:01.908Z,-1.31
2023-01-18T07:42:30.418Z,-1.31
2023-01-18T07:44:57.422Z,-1.33
2023-01-18T07:47:24.459Z,-1.33
2023-01-18T07:49:51.448Z,-1.33
2023-01-18T07:52:18.325Z,-1.26
2023-01-18T07:54:45.735Z,-1.25
2023-01-18T07:57:12.613Z,-1.23
2023-01-18T07:59:40.046Z,-1.23
2023-01-18T08:02:08.885Z,-1.19
2023-01-18T08:04:35.932Z,-1.18
2023-01-18T08:07:02.947Z,-1.25
2023-01-18T08:09:30.020Z,-1.19
2023-01-18T08:11:56.924Z,-1.15
2023-01-18T08:14:23.903Z,-1.17
2023-01-18T08:16:50.840Z,-1.20
2023-01-18T08:19:17.906Z,-1.10
2023-01-18T08:21:47.708Z,-1.13
2023-01-18T08:24:16.983Z,-1.13
2023-01-18T08:26:43.836Z,-1.08
2023-01-18T08:29:10.749Z,-1.06
2023-01-18T08:31:38.186Z,-1.01
2023-01-18T08:34:06.025Z,-1.00
2023-01-18T08:36:33.009Z,-1.07
2023-01-18T08:39:01.054Z,-0.99
2023-01-18T08:41:29.274Z,-0.96
2023-01-18T08:43:57.388Z,-0.94
2023-01-18T08:46:25.364Z,-1.00
2023-01-18T08:48:53.501Z,-1.04
2023-01-18T08:51:23.011Z,-0.97
2023-01-18T08:53:51.817Z,-0.97
2023-01-18T08:56:20.324Z,-0.96
2023-01-18T08:58:47.648Z,-0.95
2023-01-18T09:01:14.786Z,-0.88
2023-01-18T09:03:42.556Z,-0.85
2023-01-18T09:06:12.468Z,-0.83
2023-01-18T09:08:40.033Z,-0.87
2023-01-18T09:11:09.793Z,-0.86
2023-01-18T09:13:47.824Z,-0.93
2023-01-18T09:16:25.781Z,-0.90
2023-01-18T09:18:54.067Z,-0.87
2023-01-18T09:21:21.162Z,-0.85
2023-01-18T09:23:49.209Z,-0.85
2023-01-18T09:26:17.284Z,-0.82
2023-01-18T09:28:45.250Z,-0.80
2023-01-18T09:31:12.588Z,-0.79
2023-01-18T09:33:41.229Z,-0.73
2023-01-18T09:36:12.629Z,-0.72
2023-01-18T09:38:41.170Z,-0.71
2023-01-18T09:41:31.559Z,-0.64
2023-01-18T09:44:12.476Z,-0.70
2023-01-18T09:46:41.775Z,-0.73
2023-01-18T09:49:19.217Z,-0.70
2023-01-18T09:52:04.924Z,-0.63
2023-01-18T09:54:52.566Z,-0.63
2023-01-18T09:57:38.106Z,-0.63
2023-01-18T10:00:16.338Z,-0.69
2023-01-18T10:02:44.724Z,-0.75
2023-01-18T10:05:15.319Z,-0.74
2023-01-18T10:08:04.709Z,-0.76
2023-01-18T10:10:38.640Z,-0.70
2023-01-18T10:13:25.023Z,-0.76
2023-01-18T10:15:55.084Z,-0.78
2023-01-18T10:18:22.080Z,-0.72
2023-01-18T10:20:58.741Z,-0.73
2023-01-18T10:23:36.728Z,-0.75
2023-01-18T10:26:08.973Z,-0.75
2023-01-18T10:29:07.053Z,-0.73
2023-01-18T10:31:57.762Z,-0.69
2023-01-18T10:34:30.158Z,-0.62
2023-01-18T10:37:28.504Z,-0.68
2023-01-18T10:39:58.497Z,-0.71
2023-01-18T10:42:29.998Z,-0.72
2023-01-18T10:44:57.445Z,-0.75
2023-01-18T10:47:24.387Z,-0.73
2023-01-18T10:49:58.134Z,-0.76
2023-01-18T10:52:30.431Z,-0.75
2023-01-18T10:54:59.715Z,-0.76
2023-01-18T10:57:30.285Z,-0.77
2023-01-18T10:59:57.597Z,-0.72
2023-01-18T11:02:29.665Z,-0.70
2023-01-18T11:05:03.029Z,-0.67
2023-01-18T11:07:30.583Z,-0.65
2023-01-18T11:10:01.635Z,-0.61
2023-01-18T11:12:52.247Z,-0.63
2023-01-18T11:15:19.235Z,-0.61
2023-01-18T11:17:56.361Z,-0.67
2023-01-18T11:20:44.704Z,-0.71
2023-01-18T11:23:19.245Z,-0.77
2023-01-18T11:26:04.531Z,-0.76
2023-01-18T11:29:00.780Z,-0.74
2023-01-18T11:31:31.165Z,-0.72
2023-01-18T11:34:00.949Z,-0.74
2023-01-18T11:36:36.862Z,-0.66
2023-01-18T11:39:26.544Z,-0.73
2023-01-18T11:42:11.985Z,-0.74
2023-01-18T11:45:04.876Z,-0.73
2023-01-18T11:48:02.425Z,-0.69
2023-01-18T11:50:45.072Z,-0.64
2023-01-18T11:53:36.456Z,-0.64
2023-01-18T11:56:07.557Z,-0.77
2023-01-18T11:58:36.093Z,-0.69
2023-01-18T12:01:21.834Z,-0.59
2023-01-18T12:04:12.043Z,-0.58
2023-01-18T12:06:54.740Z,-0.70
2023-01-18T12:09:24.576Z,-0.56
2023-01-18T12:12:20.918Z,-0.57
2023-01-18T12:15:03.361Z,-0.54
2023-01-18T12:18:12.089Z,-0.56
2023-01-18T12:20:55.562Z,-0.59
2023-01-18T12:23:22.715Z,-0.63
2023-01-18T12:26:28.576Z,-0.68
2023-01-18T12:29:24.466Z,-0.65
2023-01-18T12:32:13.835Z,-0.64
2023-01-18T12:34:49.726Z,-0.63
2023-01-18T12:37:28.780Z,-0.64
2023-01-18T12:40:33.571Z,-0.65
2023-01-18T12:43:10.247Z,-0.71
2023-01-18T12:45:42.311Z,-0.71
2023-01-18T12:48:27.425Z,-0.67
2023-01-18T12:50:56.760Z,-0.69
2023-01-18T12:53:31.341Z,-0.63
2023-01-18T12:56:04.127Z,-0.66
2023-01-18T12:58:31.506Z,-0.65
2023-01-18T13:13:24.419Z,0.09
2023-01-18T13:16:14.222Z,-0.09
2023-01-18T13:19:04.731Z,-0.30
2023-01-18T13:22:05.114Z,-0.37
2023-01-18T13:25:09.030Z,-0.48
2023-01-18T13:27:37.896Z,-0.50
2023-01-18T13:30:36.118Z,-0.58
2023-01-18T13:33:12.885Z,-0.53
2023-01-18T13:35:55.405Z,-0.62
2023-01-18T13:38:40.829Z,-0.58
2023-01-18T13:41:11.169Z,-0.58
2023-01-18T13:43:41.524Z,-0.60
2023-01-18T13:46:08.539Z,-0.60
2023-01-18T13:48:54.523Z,-0.61
2023-01-18T13:51:39.944Z,-0.62
2023-01-18T13:54:07.584Z,-0.62
2023-01-18T13:56:36.819Z,-0.60
2023-01-18T13:59:25.933Z,-0.58
2023-01-18T14:01:53.975Z,-0.63
2023-01-18T14:04:31.839Z,-0.58
2023-01-18T14:07:02.610Z,-0.54
2023-01-18T14:09:41.087Z,-0.55
2023-01-18T14:12:08.612Z,-0.55
2023-01-18T14:14:53.312Z,-0.51
2023-01-18T14:17:20.273Z,-0.51
2023-01-18T14:19:47.176Z,-0.49
2023-01-18T14:22:35.965Z,-0.52
2023-01-18T14:25:48.148Z,-0.65
2023-01-18T14:28:29.735Z,-0.73
2023-01-18T14:30:58.705Z,-0.81
2023-01-18T14:33:41.025Z,-0.75
2023-01-18T14:36:20.346Z,-0.67
2023-01-18T14:39:06.960Z,-0.63
2023-01-18T14:41:34.471Z,-0.59
2023-01-18T14:44:01.442Z,-0.56
2023-01-18T14:46:29.612Z,-0.52
2023-01-18T14:48:57.967Z,-0.52
2023-01-18T14:51:26.804Z,-0.54
2023-01-18T14:53:58.098Z,-0.54
2023-01-18T14:56:34.997Z,-0.62
2023-01-18T14:59:21.956Z,-0.62
2023-01-18T15:01:59.771Z,-0.56
2023-01-18T15:04:28.967Z,-0.55
2023-01-18T15:07:08.541Z,-0.58
2023-01-18T15:09:38.923Z,-0.57
2023-01-18T15:12:09.535Z,-0.58
2023-01-18T15:14:38.519Z,-0.55
2023-01-18T15:17:21.573Z,-0.53
2023-01-18T15:19:53.873Z,-0.56
2023-01-18T15:22:26.132Z,-0.56
2023-01-18T15:24:53.984Z,-0.59
2023-01-18T15:27:21.076Z,-0.67
2023-01-18T15:29:51.012Z,-0.63
2023-01-18T15:32:22.103Z,-0.56
2023-01-18T15:34:50.786Z,-0.61
2023-01-18T15:37:40.004Z,-0.59
2023-01-18T15:40:13.107Z,-0.61
2023-01-18T15:43:08.117Z,-0.59
2023-01-18T15:45:40.437Z,-0.64
2023-01-18T15:48:18.632Z,-0.75
2023-01-18T15:50:52.945Z,-0.73
2023-01-18T15:53:43.454Z,-0.68
2023-01-18T15:56:24.451Z,-0.69
2023-01-18T15:58:55.882Z,-0.79
2023-01-18T16:01:29.567Z,-0.72
2023-01-18T16:04:04.413Z,-0.84
2023-01-18T16:06:35.205Z,-0.82
2023-01-18T16:09:18.024Z,-0.84
2023-01-18T16:11:54.254Z,-0.84
2023-01-18T16:14:25.716Z,-0.93
2023-01-18T16:16:54.340Z,-1.00
2023-01-18T16:19:30.184Z,-0.95
2023-01-18T16:22:00.132Z,-1.05
2023-01-18T16:24:31.932Z,-1.12
2023-01-18T16:27:02.028Z,-1.11
2023-01-18T16:29:29.071Z,-1.12
2023-01-18T16:32:36.491Z,-1.12
2023-01-18T16:35:18.196Z,-1.24
2023-01-18T16:37:45.858Z,-1.19
2023-01-18T16:40:17.600Z,-1.28
2023-01-18T16:43:07.495Z,-1.28
2023-01-18T16:45:39.108Z,-1.26
2023-01-18T16:48:06.758Z,-1.28
2023-01-18T16:50:33.811Z,-1.33
2023-01-18T16:53:00.898Z,-1.30
2023-01-18T16:55:27.904Z,-1.30
2023-01-18T16:57:54.998Z,-1.29
2023-01-18T17:00:30.967Z,-1.31
2023-01-18T17:02:58.204Z,-1.29
2023-01-18T17:05:25.838Z,-1.34
2023-01-18T17:07:52.904Z,-1.38
2023-01-18T17:10:40.872Z,-1.39
2023-01-18T17:13:11.458Z,-1.45
2023-01-18T17:15:41.788Z,-1.47
2023-01-18T17:18:15.279Z,-1.55
2023-01-18T17:20:42.399Z,-1.56
2023-01-18T17:23:12.680Z,-1.57
2023-01-18T17:25:39.695Z,-1.56
2023-01-18T17:28:06.842Z,-1.57
2023-01-18T17:30:33.934Z,-1.55
2023-01-18T17:33:01.800Z,-1.58
2023-01-18T17:35:28.995Z,-1.58
2023-01-18T17:38:01.101Z,-1.59
2023-01-18T17:40:41.965Z,-1.62
2023-01-18T17:43:31.976Z,-1.63
2023-01-18T17:46:03.299Z,-1.62
2023-01-18T17:48:30.409Z,-1.61
2023-01-18T17:50:58.462Z,-1.59
2023-01-18T17:53:26.271Z,-1.65
2023-01-18T17:55:54.059Z,-1.63
2023-01-18T17:58:21.228Z,-1.73
2023-01-18T18:00:48.487Z,-1.58
2023-01-18T18:03:22.309Z,-1.58
2023-01-18T18:05:50.732Z,-1.61
2023-01-18T18:08:17.917Z,-1.61
2023-01-18T18:10:44.923Z,-1.64
2023-01-18T18:13:12.031Z,-1.63
2023-01-18T18:15:39.734Z,-1.58
2023-01-18T18:18:12.252Z,-1.61
2023-01-18T18:20:52.302Z,-1.68
2023-01-18T18:23:20.144Z,-1.63
2023-01-18T18:25:48.332Z,-1.61
2023-01-18T18:28:15.441Z,-1.69
2023-01-18T18:30:49.103Z,-1.58
2023-01-18T18:33:16.460Z,-1.62
2023-01-18T18:35:46.540Z,-1.66
2023-01-18T18:38:15.532Z,-1.68
2023-01-18T18:40:42.537Z,-1.66
2023-01-18T18:43:10.589Z,-1.62
2023-01-18T18:45:40.418Z,-1.66
2023-01-18T18:48:07.521Z,-1.64
2023-01-18T18:50:36.242Z,-1.66
2023-01-18T18:53:05.658Z,-1.67
2023-01-18T18:55:33.015Z,-1.61
2023-01-18T18:57:59.923Z,-1.60
2023-01-18T19:00:27.507Z,-1.61
2023-01-18T19:03:02.763Z,-1.57
2023-01-18T19:05:31.510Z,-1.58
2023-01-18T19:07:58.895Z,-1.54
2023-01-18T19:10:27.686Z,-1.52
2023-01-18T19:13:02.194Z,-1.52
2023-01-18T19:15:29.676Z,-1.48
2023-01-18T19:17:58.385Z,-1.46
2023-01-18T19:20:25.468Z,-1.44
2023-01-18T19:22:52.587Z,-1.44
2023-01-18T19:25:19.774Z,-1.43
2023-01-18T19:27:51.799Z,-1.41
2023-01-18T19:30:20.164Z,-1.46
2023-01-18T19:32:48.910Z,-1.43
2023-01-18T19:35:23.803Z,-1.45
2023-01-18T19:37:50.954Z,-1.44
2023-01-18T19:40:18.313Z,-1.49
2023-01-18T19:42:54.734Z,-1.55
2023-01-18T19:45:27.799Z,-1.44
2023-01-18T19:48:02.440Z,-1.43
2023-01-18T19:50:30.602Z,-1.42
2023-01-18T19:52:58.315Z,-1.39
2023-01-18T19:55:25.754Z,-1.44
2023-01-18T19:57:56.472Z,-1.38
2023-01-18T20:00:29.096Z,-1.34
2023-01-18T20:02:57.611Z,-1.40
2023-01-18T20:05:24.845Z,-1.48
2023-01-18T20:07:52.171Z,-1.42
2023-01-18T20:10:22.040Z,-1.46
2023-01-18T20:12:50.371Z,-1.38
2023-01-18T20:15:18.805Z,-1.40
2023-01-18T20:17:51.377Z,-1.34
2023-01-18T20:20:31.365Z,-1.34
2023-01-18T20:23:00.402Z,-1.34
2023-01-18T20:25:27.765Z,-1.26
2023-01-18T20:27:56.550Z,-1.22
2023-01-18T20:30:23.741Z,-1.20
2023-01-18T20:32:51.031Z,-1.20
2023-01-18T20:35:18.125Z,-1.21
2023-01-18T20:37:45.341Z,-1.19
2023-01-18T20:40:12.793Z,-1.20
2023-01-18T20:42:40.106Z,-1.22
2023-01-18T20:45:08.319Z,-1.23
2023-01-18T20:47:36.125Z,-1.23
2023-01-18T20:50:05.971Z,-1.23
2023-01-18T20:52:33.119Z,-1.21
2023-01-18T20:55:04.070Z,-1.21
2023-01-18T20:57:31.819Z,-1.17
2023-01-18T21:00:00.092Z,-1.15
2023-01-18T21:02:27.278Z,-1.15
2023-01-18T21:04:54.347Z,-1.16
2023-01-18T21:07:21.394Z,-1.14
2023-01-18T21:09:48.384Z,-1.11
2023-01-18T21:12:15.518Z,-1.07
2023-01-18T21:14:45.012Z,-1.07
2023-01-18T21:17:13.218Z,-1.05
2023-01-18T21:19:46.054Z,-1.13
2023-01-18T21:22:15.044Z,-1.10
2023-01-18T21:24:42.370Z,-1.05
2023-01-18T21:27:09.329Z,-1.13
2023-01-18T21:29:42.207Z,-1.14
2023-01-18T21:32:09.942Z,-1.04
2023-01-18T21:34:37.051Z,-1.06
2023-01-18T21:37:04.007Z,-0.96
2023-01-18T21:39:31.212Z,-1.03
2023-01-18T21:42:19.747Z,-1.01
2023-01-18T21:45:07.556Z,-0.92
2023-01-18T21:47:34.674Z,-0.85
2023-01-18T21:50:20.074Z,-0.82
2023-01-18T21:53:06.257Z,-0.87
2023-01-18T21:55:35.097Z,-0.87
2023-01-18T21:58:20.658Z,-0.83
2023-01-18T22:00:50.788Z,-0.74
2023-01-18T22:03:20.810Z,-0.73
2023-01-18T22:05:48.020Z,-0.69
2023-01-18T22:08:15.471Z,-0.68
2023-01-18T22:10:47.325Z,-0.70
2023-01-18T22:13:14.364Z,-0.67
2023-01-18T22:15:41.399Z,-0.68
2023-01-18T22:18:08.346Z,-0.71
2023-01-18T22:20:35.480Z,-0.69
2023-01-18T22:23:02.720Z,-0.72
2023-01-18T22:25:29.813Z,-0.65
2023-01-18T22:28:17.037Z,-0.62
2023-01-18T22:30:46.699Z,-0.66
2023-01-18T22:33:17.824Z,-0.69
2023-01-18T22:35:47.924Z,-0.69
2023-01-18T22:38:17.360Z,-0.80
2023-01-18T22:40:44.299Z,-0.76
2023-01-18T22:43:13.674Z,-0.74
2023-01-18T22:45:40.649Z,-0.79
2023-01-18T22:48:07.700Z,-0.79
2023-01-18T22:50:34.923Z,-0.80
2023-01-18T22:53:02.563Z,-0.84
2023-01-18T22:55:29.571Z,-0.91
2023-01-18T22:57:56.500Z,-0.82
2023-01-18T23:00:28.069Z,-0.81
2023-01-18T23:02:55.307Z,-0.83
2023-01-18T23:05:22.235Z,-0.86
2023-01-18T23:07:49.248Z,-0.80
2023-01-18T23:10:19.047Z,-0.75
2023-01-18T23:12:46.085Z,-0.77
2023-01-18T23:15:31.665Z,-0.76
2023-01-18T23:17:58.949Z,-0.77
2023-01-18T23:20:28.619Z,-0.68
2023-01-18T23:23:02.117Z,-0.71
2023-01-18T23:25:29.141Z,-0.63
2023-01-18T23:27:56.157Z,-0.66
2023-01-18T23:30:25.879Z,-0.64
2023-01-18T23:32:52.833Z,-0.61
2023-01-18T23:35:19.821Z,-0.66
2023-01-18T23:37:47.768Z,-0.63
2023-01-18T23:40:33.123Z,-0.63
2023-01-18T23:43:18.842Z,-0.62
2023-01-18T23:46:04.279Z,-0.68
2023-01-18T23:48:50.093Z,-0.68
2023-01-18T23:51:35.751Z,-0.66
2023-01-18T23:54:18.799Z,-0.70
2023-01-18T23:56:46.753Z,-0.68
2023-01-18T23:59:14.239Z,-0.70
